sensor_id;sensor_type;location;lat;lon;timestamp;P1;durP1;ratioP1;P2;durP2;ratioP2
3343;SDS011;1685;53.104;8.228;2022-11-23T00:00:30;4.17;;;3.87;;
3343;SDS011;1685;53.104;8.228;2022-11-23T00:02:58;3.97;;;3.57;;
3343;SDS011;1685;53.104;8.228;2022-11-23T00:05:26;4.00;;;3.70;;
3343;SDS011;1685;53.104;8.228;2022-11-23T00:07:54;4.00;;;3.60;;
3343;SDS011;1685;53.104;8.228;2022-11-23T00:10:21;6.60;;;4.40;;
3343;SDS011;1685;53.104;8.228;2022-11-23T00:12:48;6.47;;;4.50;;
3343;SDS011;1685;53.104;8.228;2022-11-23T00:15:15;6.10;;;4.37;;
3343;SDS011;1685;53.104;8.228;2022-11-23T00:17:41;5.10;;;3.80;;
3343;SDS011;1685;53.104;8.228;2022-11-23T00:20:10;3.67;;;3.33;;
3343;SDS011;1685;53.104;8.228;2022-11-23T00:22:36;4.67;;;4.27;;
3343;SDS011;1685;53.104;8.228;2022-11-23T00:25:04;4.33;;;3.93;;
3343;SDS011;1685;53.104;8.228;2022-11-23T00:27:31;3.83;;;3.53;;
3343;SDS011;1685;53.104;8.228;2022-11-23T00:29:58;4.73;;;3.77;;
3343;SDS011;1685;53.104;8.228;2022-11-23T00:32:25;8.33;;;3.90;;
3343;SDS011;1685;53.104;8.228;2022-11-23T00:34:53;3.80;;;3.50;;
3343;SDS011;1685;53.104;8.228;2022-11-23T00:37:21;4.40;;;3.70;;
3343;SDS011;1685;53.104;8.228;2022-11-23T00:39:48;5.43;;;4.17;;
3343;SDS011;1685;53.104;8.228;2022-11-23T00:42:15;4.70;;;3.53;;
3343;SDS011;1685;53.104;8.228;2022-11-23T00:44:42;10.20;;;3.37;;
3343;SDS011;1685;53.104;8.228;2022-11-23T00:47:08;4.93;;;3.80;;
3343;SDS011;1685;53.104;8.228;2022-11-23T00:49:35;3.90;;;3.60;;
3343;SDS011;1685;53.104;8.228;2022-11-23T00:52:02;3.93;;;3.63;;
3343;SDS011;1685;53.104;8.228;2022-11-23T00:54:30;4.70;;;3.83;;
3343;SDS011;1685;53.104;8.228;2022-11-23T00:56:57;4.37;;;3.97;;
3343;SDS011;1685;53.104;8.228;2022-11-23T00:59:24;4.20;;;3.90;;
3343;SDS011;1685;53.104;8.228;2022-11-23T01:01:53;5.60;;;4.00;;
3343;SDS011;1685;53.104;8.228;2022-11-23T01:04:20;5.60;;;4.10;;
3343;SDS011;1685;53.104;8.228;2022-11-23T01:06:47;3.77;;;3.47;;
3343;SDS011;1685;53.104;8.228;2022-11-23T01:09:14;3.90;;;3.47;;
3343;SDS011;1685;53.104;8.228;2022-11-23T01:11:45;4.77;;;4.27;;
3343;SDS011;1685;53.104;8.228;2022-11-23T01:14:12;4.27;;;3.97;;
3343;SDS011;1685;53.104;8.228;2022-11-23T01:16:39;4.23;;;3.70;;
3343;SDS011;1685;53.104;8.228;2022-11-23T01:19:07;5.60;;;4.30;;
3343;SDS011;1685;53.104;8.228;2022-11-23T01:21:36;4.10;;;3.47;;
3343;SDS011;1685;53.104;8.228;2022-11-23T01:24:03;3.47;;;3.17;;
3343;SDS011;1685;53.104;8.228;2022-11-23T01:26:31;5.67;;;3.73;;
3343;SDS011;1685;53.104;8.228;2022-11-23T01:28:59;3.67;;;3.37;;
3343;SDS011;1685;53.104;8.228;2022-11-23T01:31:26;3.97;;;3.60;;
3343;SDS011;1685;53.104;8.228;2022-11-23T01:33:53;6.77;;;3.83;;
3343;SDS011;1685;53.104;8.228;2022-11-23T01:36:21;6.63;;;4.20;;
3343;SDS011;1685;53.104;8.228;2022-11-23T01:38:50;4.50;;;4.13;;
3343;SDS011;1685;53.104;8.228;2022-11-23T01:41:18;3.40;;;3.10;;
3343;SDS011;1685;53.104;8.228;2022-11-23T01:43:46;6.10;;;4.50;;
3343;SDS011;1685;53.104;8.228;2022-11-23T01:46:14;9.97;;;4.20;;
3343;SDS011;1685;53.104;8.228;2022-11-23T01:48:42;5.10;;;4.10;;
3343;SDS011;1685;53.104;8.228;2022-11-23T01:51:13;4.37;;;4.07;;
3343;SDS011;1685;53.104;8.228;2022-11-23T01:53:41;5.00;;;3.90;;
3343;SDS011;1685;53.104;8.228;2022-11-23T01:56:09;4.40;;;4.10;;
3343;SDS011;1685;53.104;8.228;2022-11-23T01:58:41;4.13;;;3.80;;
3343;SDS011;1685;53.104;8.228;2022-11-23T02:01:10;4.03;;;3.77;;
3343;SDS011;1685;53.104;8.228;2022-11-23T02:03:39;7.63;;;3.83;;
3343;SDS011;1685;53.104;8.228;2022-11-23T02:06:09;4.27;;;3.57;;
3343;SDS011;1685;53.104;8.228;2022-11-23T02:08:39;5.17;;;3.60;;
3343;SDS011;1685;53.104;8.228;2022-11-23T02:11:07;5.30;;;4.00;;
3343;SDS011;1685;53.104;8.228;2022-11-23T02:13:36;3.63;;;3.30;;
3343;SDS011;1685;53.104;8.228;2022-11-23T02:16:03;3.43;;;3.23;;
3343;SDS011;1685;53.104;8.228;2022-11-23T02:18:31;5.60;;;3.67;;
3343;SDS011;1685;53.104;8.228;2022-11-23T02:21:01;5.67;;;4.20;;
3343;SDS011;1685;53.104;8.228;2022-11-23T02:23:32;4.70;;;4.10;;
3343;SDS011;1685;53.104;8.228;2022-11-23T02:26:05;4.10;;;3.70;;
3343;SDS011;1685;53.104;8.228;2022-11-23T02:28:35;6.07;;;3.50;;
3343;SDS011;1685;53.104;8.228;2022-11-23T02:31:05;6.20;;;4.07;;
3343;SDS011;1685;53.104;8.228;2022-11-23T02:33:32;4.40;;;3.77;;
3343;SDS011;1685;53.104;8.228;2022-11-23T02:35:59;7.60;;;3.90;;
3343;SDS011;1685;53.104;8.228;2022-11-23T02:38:27;12.20;;;3.83;;
3343;SDS011;1685;53.104;8.228;2022-11-23T02:40:56;3.50;;;3.30;;
3343;SDS011;1685;53.104;8.228;2022-11-23T02:43:25;4.07;;;3.77;;
3343;SDS011;1685;53.104;8.228;2022-11-23T02:45:52;4.97;;;3.80;;
3343;SDS011;1685;53.104;8.228;2022-11-23T02:48:21;4.03;;;3.30;;
3343;SDS011;1685;53.104;8.228;2022-11-23T02:50:48;4.07;;;3.77;;
3343;SDS011;1685;53.104;8.228;2022-11-23T02:53:15;4.70;;;4.07;;
3343;SDS011;1685;53.104;8.228;2022-11-23T02:55:42;4.10;;;3.70;;
3343;SDS011;1685;53.104;8.228;2022-11-23T02:58:08;6.60;;;3.10;;
3343;SDS011;1685;53.104;8.228;2022-11-23T03:00:37;3.70;;;3.40;;
3343;SDS011;1685;53.104;8.228;2022-11-23T03:03:04;4.90;;;3.10;;
3343;SDS011;1685;53.104;8.228;2022-11-23T03:05:31;3.50;;;3.30;;
3343;SDS011;1685;53.104;8.228;2022-11-23T03:07:58;3.57;;;3.27;;
3343;SDS011;1685;53.104;8.228;2022-11-23T03:10:24;4.73;;;3.90;;
3343;SDS011;1685;53.104;8.228;2022-11-23T03:12:52;4.97;;;4.57;;
3343;SDS011;1685;53.104;8.228;2022-11-23T03:15:20;7.40;;;4.30;;
3343;SDS011;1685;53.104;8.228;2022-11-23T03:17:48;4.00;;;3.67;;
3343;SDS011;1685;53.104;8.228;2022-11-23T03:20:15;4.63;;;4.23;;
3343;SDS011;1685;53.104;8.228;2022-11-23T03:22:42;8.87;;;4.33;;
3343;SDS011;1685;53.104;8.228;2022-11-23T03:25:09;6.30;;;3.87;;
3343;SDS011;1685;53.104;8.228;2022-11-23T03:27:36;4.43;;;4.03;;
3343;SDS011;1685;53.104;8.228;2022-11-23T03:30:04;8.93;;;3.97;;
3343;SDS011;1685;53.104;8.228;2022-11-23T03:32:32;5.40;;;5.00;;
3343;SDS011;1685;53.104;8.228;2022-11-23T03:35:00;6.50;;;4.63;;
3343;SDS011;1685;53.104;8.228;2022-11-23T03:37:27;4.90;;;4.50;;
3343;SDS011;1685;53.104;8.228;2022-11-23T03:39:54;5.20;;;4.70;;
3343;SDS011;1685;53.104;8.228;2022-11-23T03:42:20;8.03;;;5.10;;
3343;SDS011;1685;53.104;8.228;2022-11-23T03:44:47;5.40;;;4.90;;
3343;SDS011;1685;53.104;8.228;2022-11-23T03:47:14;4.97;;;4.57;;
3343;SDS011;1685;53.104;8.228;2022-11-23T03:49:41;7.10;;;5.93;;
3343;SDS011;1685;53.104;8.228;2022-11-23T03:52:09;5.87;;;5.30;;
3343;SDS011;1685;53.104;8.228;2022-11-23T03:54:36;8.10;;;5.27;;
3343;SDS011;1685;53.104;8.228;2022-11-23T03:57:02;8.57;;;5.47;;
3343;SDS011;1685;53.104;8.228;2022-11-23T03:59:29;6.33;;;5.23;;
3343;SDS011;1685;53.104;8.228;2022-11-23T04:01:56;8.50;;;5.93;;
3343;SDS011;1685;53.104;8.228;2022-11-23T04:04:23;7.10;;;5.60;;
3343;SDS011;1685;53.104;8.228;2022-11-23T04:06:49;9.20;;;5.57;;
3343;SDS011;1685;53.104;8.228;2022-11-23T04:09:17;9.23;;;6.97;;
3343;SDS011;1685;53.104;8.228;2022-11-23T04:11:44;9.17;;;6.23;;
3343;SDS011;1685;53.104;8.228;2022-11-23T04:14:11;13.00;;;6.77;;
3343;SDS011;1685;53.104;8.228;2022-11-23T04:16:37;9.93;;;6.97;;
3343;SDS011;1685;53.104;8.228;2022-11-23T04:19:04;9.37;;;6.03;;
3343;SDS011;1685;53.104;8.228;2022-11-23T04:21:31;8.30;;;6.97;;
3343;SDS011;1685;53.104;8.228;2022-11-23T04:23:57;8.50;;;7.20;;
3343;SDS011;1685;53.104;8.228;2022-11-23T04:26:26;17.00;;;7.53;;
3343;SDS011;1685;53.104;8.228;2022-11-23T04:28:52;9.33;;;7.47;;
3343;SDS011;1685;53.104;8.228;2022-11-23T04:31:19;8.60;;;6.40;;
3343;SDS011;1685;53.104;8.228;2022-11-23T04:33:46;11.27;;;7.50;;
3343;SDS011;1685;53.104;8.228;2022-11-23T04:36:13;11.83;;;8.13;;
3343;SDS011;1685;53.104;8.228;2022-11-23T04:38:40;10.87;;;7.30;;
3343;SDS011;1685;53.104;8.228;2022-11-23T04:41:06;12.93;;;8.57;;
3343;SDS011;1685;53.104;8.228;2022-11-23T04:43:35;15.43;;;8.27;;
3343;SDS011;1685;53.104;8.228;2022-11-23T04:46:01;13.03;;;8.30;;
3343;SDS011;1685;53.104;8.228;2022-11-23T04:48:28;17.93;;;9.53;;
3343;SDS011;1685;53.104;8.228;2022-11-23T04:50:55;14.40;;;8.07;;
3343;SDS011;1685;53.104;8.228;2022-11-23T04:53:22;9.40;;;7.30;;
3343;SDS011;1685;53.104;8.228;2022-11-23T04:55:49;10.30;;;8.50;;
3343;SDS011;1685;53.104;8.228;2022-11-23T04:58:16;11.60;;;8.33;;
3343;SDS011;1685;53.104;8.228;2022-11-23T05:00:44;15.27;;;8.47;;
3343;SDS011;1685;53.104;8.228;2022-11-23T05:03:11;13.83;;;8.17;;
3343;SDS011;1685;53.104;8.228;2022-11-23T05:05:37;19.30;;;8.43;;
3343;SDS011;1685;53.104;8.228;2022-11-23T05:08:04;12.43;;;8.97;;
3343;SDS011;1685;53.104;8.228;2022-11-23T05:10:32;13.40;;;9.50;;
3343;SDS011;1685;53.104;8.228;2022-11-23T05:12:59;19.27;;;10.30;;
3343;SDS011;1685;53.104;8.228;2022-11-23T05:15:26;20.37;;;10.10;;
3343;SDS011;1685;53.104;8.228;2022-11-23T05:17:54;24.43;;;10.07;;
3343;SDS011;1685;53.104;8.228;2022-11-23T05:20:26;19.17;;;10.07;;
3343;SDS011;1685;53.104;8.228;2022-11-23T05:22:53;15.33;;;10.33;;
3343;SDS011;1685;53.104;8.228;2022-11-23T05:25:19;17.67;;;10.70;;
3343;SDS011;1685;53.104;8.228;2022-11-23T05:27:46;11.17;;;9.43;;
3343;SDS011;1685;53.104;8.228;2022-11-23T05:30:13;19.20;;;10.20;;
3343;SDS011;1685;53.104;8.228;2022-11-23T05:32:40;20.87;;;9.70;;
3343;SDS011;1685;53.104;8.228;2022-11-23T05:35:08;18.87;;;10.73;;
3343;SDS011;1685;53.104;8.228;2022-11-23T05:37:35;21.70;;;11.03;;
3343;SDS011;1685;53.104;8.228;2022-11-23T05:40:02;14.60;;;9.60;;
3343;SDS011;1685;53.104;8.228;2022-11-23T05:42:29;16.37;;;10.93;;
3343;SDS011;1685;53.104;8.228;2022-11-23T05:44:56;19.00;;;10.50;;
3343;SDS011;1685;53.104;8.228;2022-11-23T05:47:23;17.17;;;10.73;;
3343;SDS011;1685;53.104;8.228;2022-11-23T05:49:50;17.30;;;10.63;;
3343;SDS011;1685;53.104;8.228;2022-11-23T05:52:18;14.83;;;10.13;;
3343;SDS011;1685;53.104;8.228;2022-11-23T05:54:45;18.60;;;11.87;;
3343;SDS011;1685;53.104;8.228;2022-11-23T05:57:12;15.27;;;10.20;;
3343;SDS011;1685;53.104;8.228;2022-11-23T05:59:39;15.90;;;10.47;;
3343;SDS011;1685;53.104;8.228;2022-11-23T06:02:06;23.07;;;12.03;;
3343;SDS011;1685;53.104;8.228;2022-11-23T06:04:33;16.00;;;10.90;;
3343;SDS011;1685;53.104;8.228;2022-11-23T06:06:59;21.63;;;10.97;;
3343;SDS011;1685;53.104;8.228;2022-11-23T06:09:27;15.73;;;11.60;;
3343;SDS011;1685;53.104;8.228;2022-11-23T06:11:54;21.67;;;10.87;;
3343;SDS011;1685;53.104;8.228;2022-11-23T06:14:21;14.83;;;11.20;;
3343;SDS011;1685;53.104;8.228;2022-11-23T06:16:49;20.70;;;10.27;;
3343;SDS011;1685;53.104;8.228;2022-11-23T06:19:16;18.80;;;10.30;;
3343;SDS011;1685;53.104;8.228;2022-11-23T06:21:42;19.90;;;10.77;;
3343;SDS011;1685;53.104;8.228;2022-11-23T06:24:09;22.23;;;10.87;;
3343;SDS011;1685;53.104;8.228;2022-11-23T06:26:38;16.80;;;10.60;;
3343;SDS011;1685;53.104;8.228;2022-11-23T06:29:04;24.13;;;11.97;;
3343;SDS011;1685;53.104;8.228;2022-11-23T06:31:31;23.30;;;11.30;;
3343;SDS011;1685;53.104;8.228;2022-11-23T06:33:58;19.00;;;10.97;;
3343;SDS011;1685;53.104;8.228;2022-11-23T06:36:25;26.33;;;10.20;;
3343;SDS011;1685;53.104;8.228;2022-11-23T06:38:52;17.20;;;10.80;;
3343;SDS011;1685;53.104;8.228;2022-11-23T06:41:19;21.40;;;11.27;;
3343;SDS011;1685;53.104;8.228;2022-11-23T06:43:47;18.80;;;11.17;;
3343;SDS011;1685;53.104;8.228;2022-11-23T06:46:14;20.47;;;11.90;;
3343;SDS011;1685;53.104;8.228;2022-11-23T06:48:42;17.97;;;12.00;;
3343;SDS011;1685;53.104;8.228;2022-11-23T06:51:09;17.67;;;10.83;;
3343;SDS011;1685;53.104;8.228;2022-11-23T06:53:36;20.40;;;13.20;;
3343;SDS011;1685;53.104;8.228;2022-11-23T06:56:03;19.27;;;12.10;;
3343;SDS011;1685;53.104;8.228;2022-11-23T06:58:30;23.47;;;12.10;;
3343;SDS011;1685;53.104;8.228;2022-11-23T07:00:59;17.60;;;11.40;;
3343;SDS011;1685;53.104;8.228;2022-11-23T07:03:27;22.00;;;12.00;;
3343;SDS011;1685;53.104;8.228;2022-11-23T07:05:54;18.70;;;11.30;;
3343;SDS011;1685;53.104;8.228;2022-11-23T07:08:21;23.10;;;11.80;;
3343;SDS011;1685;53.104;8.228;2022-11-23T07:10:48;20.27;;;12.23;;
3343;SDS011;1685;53.104;8.228;2022-11-23T07:13:15;18.93;;;13.10;;
3343;SDS011;1685;53.104;8.228;2022-11-23T07:15:42;27.47;;;12.60;;
3343;SDS011;1685;53.104;8.228;2022-11-23T07:18:10;19.63;;;12.07;;
3343;SDS011;1685;53.104;8.228;2022-11-23T07:20:37;18.83;;;12.40;;
3343;SDS011;1685;53.104;8.228;2022-11-23T07:23:04;22.90;;;11.67;;
3343;SDS011;1685;53.104;8.228;2022-11-23T07:25:33;21.13;;;12.30;;
3343;SDS011;1685;53.104;8.228;2022-11-23T07:28:01;27.43;;;12.13;;
3343;SDS011;1685;53.104;8.228;2022-11-23T07:30:29;26.17;;;13.60;;
3343;SDS011;1685;53.104;8.228;2022-11-23T07:32:57;19.93;;;12.07;;
3343;SDS011;1685;53.104;8.228;2022-11-23T07:35:26;23.07;;;11.07;;
3343;SDS011;1685;53.104;8.228;2022-11-23T07:37:53;17.73;;;11.17;;
3343;SDS011;1685;53.104;8.228;2022-11-23T07:40:20;17.50;;;11.43;;
3343;SDS011;1685;53.104;8.228;2022-11-23T07:42:47;14.17;;;9.83;;
3343;SDS011;1685;53.104;8.228;2022-11-23T07:45:14;15.60;;;10.40;;
3343;SDS011;1685;53.104;8.228;2022-11-23T07:47:41;18.50;;;10.50;;
3343;SDS011;1685;53.104;8.228;2022-11-23T07:50:08;22.73;;;10.63;;
3343;SDS011;1685;53.104;8.228;2022-11-23T07:52:38;17.03;;;11.03;;
3343;SDS011;1685;53.104;8.228;2022-11-23T07:55:05;26.20;;;10.17;;
3343;SDS011;1685;53.104;8.228;2022-11-23T07:57:32;14.07;;;9.23;;
3343;SDS011;1685;53.104;8.228;2022-11-23T07:59:59;17.47;;;9.33;;
3343;SDS011;1685;53.104;8.228;2022-11-23T08:02:26;18.23;;;9.07;;
3343;SDS011;1685;53.104;8.228;2022-11-23T08:04:53;17.77;;;10.33;;
3343;SDS011;1685;53.104;8.228;2022-11-23T08:07:20;21.17;;;10.00;;
3343;SDS011;1685;53.104;8.228;2022-11-23T08:09:48;11.33;;;9.77;;
3343;SDS011;1685;53.104;8.228;2022-11-23T08:12:15;15.30;;;9.03;;
3343;SDS011;1685;53.104;8.228;2022-11-23T08:14:42;14.60;;;9.53;;
3343;SDS011;1685;53.104;8.228;2022-11-23T08:17:08;14.37;;;9.93;;
3343;SDS011;1685;53.104;8.228;2022-11-23T08:19:35;22.40;;;8.80;;
3343;SDS011;1685;53.104;8.228;2022-11-23T08:22:02;14.47;;;8.90;;
3343;SDS011;1685;53.104;8.228;2022-11-23T08:24:28;15.83;;;10.10;;
3343;SDS011;1685;53.104;8.228;2022-11-23T08:26:57;13.07;;;9.17;;
3343;SDS011;1685;53.104;8.228;2022-11-23T08:29:23;20.03;;;10.20;;
3343;SDS011;1685;53.104;8.228;2022-11-23T08:31:50;14.43;;;11.03;;
3343;SDS011;1685;53.104;8.228;2022-11-23T08:34:17;16.33;;;9.73;;
3343;SDS011;1685;53.104;8.228;2022-11-23T08:36:44;14.30;;;9.20;;
3343;SDS011;1685;53.104;8.228;2022-11-23T08:39:12;12.83;;;9.50;;
3343;SDS011;1685;53.104;8.228;2022-11-23T08:41:40;23.63;;;10.70;;
3343;SDS011;1685;53.104;8.228;2022-11-23T08:44:08;19.27;;;9.30;;
3343;SDS011;1685;53.104;8.228;2022-11-23T08:46:36;16.80;;;10.60;;
3343;SDS011;1685;53.104;8.228;2022-11-23T08:49:03;19.57;;;10.70;;
3343;SDS011;1685;53.104;8.228;2022-11-23T08:51:31;17.83;;;9.47;;
3343;SDS011;1685;53.104;8.228;2022-11-23T08:53:58;15.73;;;9.93;;
3343;SDS011;1685;53.104;8.228;2022-11-23T08:56:25;15.53;;;9.47;;
3343;SDS011;1685;53.104;8.228;2022-11-23T08:58:52;18.87;;;10.40;;
3343;SDS011;1685;53.104;8.228;2022-11-23T09:01:20;13.03;;;9.40;;
3343;SDS011;1685;53.104;8.228;2022-11-23T09:03:47;18.20;;;10.03;;
3343;SDS011;1685;53.104;8.228;2022-11-23T09:06:14;21.03;;;10.60;;
3343;SDS011;1685;53.104;8.228;2022-11-23T09:08:41;18.43;;;10.80;;
3343;SDS011;1685;53.104;8.228;2022-11-23T09:11:09;15.13;;;11.37;;
3343;SDS011;1685;53.104;8.228;2022-11-23T09:13:38;17.87;;;11.40;;
3343;SDS011;1685;53.104;8.228;2022-11-23T09:16:05;20.27;;;13.20;;
3343;SDS011;1685;53.104;8.228;2022-11-23T09:18:34;25.63;;;11.90;;
3343;SDS011;1685;53.104;8.228;2022-11-23T09:21:01;22.60;;;12.00;;
3343;SDS011;1685;53.104;8.228;2022-11-23T09:23:29;20.17;;;11.70;;
3343;SDS011;1685;53.104;8.228;2022-11-23T09:25:56;23.93;;;12.70;;
3343;SDS011;1685;53.104;8.228;2022-11-23T09:28:23;20.63;;;12.73;;
3343;SDS011;1685;53.104;8.228;2022-11-23T09:30:51;29.00;;;14.83;;
3343;SDS011;1685;53.104;8.228;2022-11-23T09:33:18;21.10;;;12.57;;
3343;SDS011;1685;53.104;8.228;2022-11-23T09:35:47;34.53;;;13.63;;
3343;SDS011;1685;53.104;8.228;2022-11-23T09:38:21;22.90;;;15.30;;
3343;SDS011;1685;53.104;8.228;2022-11-23T09:40:48;22.80;;;14.10;;
3343;SDS011;1685;53.104;8.228;2022-11-23T09:43:30;23.57;;;15.67;;
3343;SDS011;1685;53.104;8.228;2022-11-23T09:46:08;23.90;;;15.73;;
3343;SDS011;1685;53.104;8.228;2022-11-23T09:48:48;27.90;;;15.70;;
3343;SDS011;1685;53.104;8.228;2022-11-23T09:51:27;25.93;;;16.30;;
3343;SDS011;1685;53.104;8.228;2022-11-23T09:53:54;21.90;;;15.70;;
3343;SDS011;1685;53.104;8.228;2022-11-23T09:56:25;25.83;;;15.67;;
3343;SDS011;1685;53.104;8.228;2022-11-23T09:58:55;28.47;;;15.87;;
3343;SDS011;1685;53.104;8.228;2022-11-23T10:01:24;24.07;;;16.43;;
3343;SDS011;1685;53.104;8.228;2022-11-23T10:03:52;28.40;;;15.10;;
3343;SDS011;1685;53.104;8.228;2022-11-23T10:06:20;19.97;;;13.63;;
3343;SDS011;1685;53.104;8.228;2022-11-23T10:11:52;23.50;;;16.37;;
3343;SDS011;1685;53.104;8.228;2022-11-23T10:14:40;20.73;;;14.73;;
3343;SDS011;1685;53.104;8.228;2022-11-23T10:17:20;29.57;;;15.20;;
3343;SDS011;1685;53.104;8.228;2022-11-23T10:19:58;21.40;;;14.73;;
3343;SDS011;1685;53.104;8.228;2022-11-23T10:22:42;31.90;;;14.40;;
3343;SDS011;1685;53.104;8.228;2022-11-23T10:25:15;19.10;;;14.27;;
3343;SDS011;1685;53.104;8.228;2022-11-23T10:27:49;26.30;;;14.50;;
3343;SDS011;1685;53.104;8.228;2022-11-23T10:30:18;22.23;;;14.60;;
3343;SDS011;1685;53.104;8.228;2022-11-23T10:32:46;23.47;;;13.47;;
3343;SDS011;1685;53.104;8.228;2022-11-23T10:35:17;20.03;;;13.70;;
3343;SDS011;1685;53.104;8.228;2022-11-23T10:37:50;23.20;;;13.33;;
3343;SDS011;1685;53.104;8.228;2022-11-23T10:40:20;24.00;;;12.97;;
3343;SDS011;1685;53.104;8.228;2022-11-23T10:42:51;25.47;;;11.63;;
3343;SDS011;1685;53.104;8.228;2022-11-23T10:45:21;12.80;;;10.80;;
3343;SDS011;1685;53.104;8.228;2022-11-23T10:47:49;22.17;;;11.13;;
3343;SDS011;1685;53.104;8.228;2022-11-23T10:50:20;15.93;;;11.80;;
3343;SDS011;1685;53.104;8.228;2022-11-23T10:52:49;12.73;;;11.27;;
3343;SDS011;1685;53.104;8.228;2022-11-23T10:55:19;12.63;;;9.27;;
3343;SDS011;1685;53.104;8.228;2022-11-23T10:57:51;12.73;;;10.40;;
3343;SDS011;1685;53.104;8.228;2022-11-23T11:00:18;11.07;;;9.63;;
3343;SDS011;1685;53.104;8.228;2022-11-23T11:02:47;12.57;;;11.00;;
3343;SDS011;1685;53.104;8.228;2022-11-23T11:05:26;26.00;;;10.80;;
3343;SDS011;1685;53.104;8.228;2022-11-23T11:07:55;17.87;;;11.37;;
3343;SDS011;1685;53.104;8.228;2022-11-23T11:10:35;10.57;;;8.63;;
3343;SDS011;1685;53.104;8.228;2022-11-23T11:13:19;12.57;;;9.87;;
3343;SDS011;1685;53.104;8.228;2022-11-23T11:15:50;15.17;;;10.50;;
3343;SDS011;1685;53.104;8.228;2022-11-23T11:18:20;20.40;;;10.37;;
3343;SDS011;1685;53.104;8.228;2022-11-23T11:20:54;12.03;;;8.53;;
3343;SDS011;1685;53.104;8.228;2022-11-23T11:23:23;12.93;;;8.57;;
3343;SDS011;1685;53.104;8.228;2022-11-23T11:26:00;16.47;;;9.27;;
3343;SDS011;1685;53.104;8.228;2022-11-23T11:28:33;12.23;;;9.33;;
3343;SDS011;1685;53.104;8.228;2022-11-23T11:31:07;17.83;;;9.40;;
3343;SDS011;1685;53.104;8.228;2022-11-23T11:34:00;11.60;;;9.13;;
3343;SDS011;1685;53.104;8.228;2022-11-23T11:36:49;23.10;;;10.27;;
3343;SDS011;1685;53.104;8.228;2022-11-23T11:39:23;12.90;;;8.57;;
3343;SDS011;1685;53.104;8.228;2022-11-23T11:41:55;14.57;;;9.60;;
3343;SDS011;1685;53.104;8.228;2022-11-23T11:44:25;16.80;;;9.27;;
3343;SDS011;1685;53.104;8.228;2022-11-23T11:46:54;16.00;;;9.00;;
3343;SDS011;1685;53.104;8.228;2022-11-23T11:49:25;16.70;;;9.93;;
3343;SDS011;1685;53.104;8.228;2022-11-23T11:51:57;11.43;;;8.80;;
3343;SDS011;1685;53.104;8.228;2022-11-23T11:54:30;16.03;;;8.40;;
3343;SDS011;1685;53.104;8.228;2022-11-23T11:57:05;12.87;;;8.27;;
3343;SDS011;1685;53.104;8.228;2022-11-23T11:59:40;16.50;;;9.27;;
3343;SDS011;1685;53.104;8.228;2022-11-23T12:02:15;18.50;;;8.10;;
3343;SDS011;1685;53.104;8.228;2022-11-23T12:04:48;14.70;;;8.80;;
3343;SDS011;1685;53.104;8.228;2022-11-23T12:07:28;19.90;;;8.77;;
3343;SDS011;1685;53.104;8.228;2022-11-23T12:09:59;14.47;;;8.70;;
3343;SDS011;1685;53.104;8.228;2022-11-23T12:12:31;10.97;;;7.00;;
3343;SDS011;1685;53.104;8.228;2022-11-23T12:15:00;13.73;;;7.57;;
3343;SDS011;1685;53.104;8.228;2022-11-23T12:17:34;12.60;;;6.77;;
3343;SDS011;1685;53.104;8.228;2022-11-23T12:20:19;11.27;;;7.50;;
3343;SDS011;1685;53.104;8.228;2022-11-23T12:22:57;11.37;;;6.10;;
3343;SDS011;1685;53.104;8.228;2022-11-23T12:25:32;8.63;;;5.50;;
3343;SDS011;1685;53.104;8.228;2022-11-23T12:28:08;19.30;;;5.20;;
3343;SDS011;1685;53.104;8.228;2022-11-23T12:30:46;16.97;;;5.53;;
3343;SDS011;1685;53.104;8.228;2022-11-23T12:33:25;8.53;;;5.00;;
3343;SDS011;1685;53.104;8.228;2022-11-23T12:36:09;7.80;;;5.37;;
3343;SDS011;1685;53.104;8.228;2022-11-23T12:38:52;7.27;;;4.50;;
3343;SDS011;1685;53.104;8.228;2022-11-23T12:41:22;10.43;;;4.90;;
3343;SDS011;1685;53.104;8.228;2022-11-23T12:43:57;5.27;;;4.10;;
3343;SDS011;1685;53.104;8.228;2022-11-23T12:46:46;8.63;;;3.97;;
3343;SDS011;1685;53.104;8.228;2022-11-23T12:49:24;8.60;;;4.53;;
3343;SDS011;1685;53.104;8.228;2022-11-23T12:51:57;9.93;;;4.50;;
3343;SDS011;1685;53.104;8.228;2022-11-23T12:54:38;10.30;;;4.87;;
3343;SDS011;1685;53.104;8.228;2022-11-23T12:57:17;15.93;;;4.30;;
3343;SDS011;1685;53.104;8.228;2022-11-23T12:59:50;13.50;;;3.83;;
3343;SDS011;1685;53.104;8.228;2022-11-23T13:02:30;7.63;;;3.60;;
3343;SDS011;1685;53.104;8.228;2022-11-23T13:05:26;9.77;;;3.90;;
3343;SDS011;1685;53.104;8.228;2022-11-23T13:11:15;6.93;;;2.87;;
3343;SDS011;1685;53.104;8.228;2022-11-23T13:13:55;14.07;;;3.10;;
3343;SDS011;1685;53.104;8.228;2022-11-23T13:16:36;7.80;;;2.77;;
3343;SDS011;1685;53.104;8.228;2022-11-23T13:19:23;3.90;;;2.60;;
3343;SDS011;1685;53.104;8.228;2022-11-23T13:22:01;6.60;;;2.90;;
3343;SDS011;1685;53.104;8.228;2022-11-23T13:24:32;8.13;;;3.03;;
3343;SDS011;1685;53.104;8.228;2022-11-23T13:30:08;5.00;;;2.20;;
3343;SDS011;1685;53.104;8.228;2022-11-23T13:36:00;9.80;;;2.40;;
3343;SDS011;1685;53.104;8.228;2022-11-23T13:38:34;5.57;;;2.80;;
3343;SDS011;1685;53.104;8.228;2022-11-23T13:44:22;7.57;;;2.57;;
3343;SDS011;1685;53.104;8.228;2022-11-23T13:49:46;6.37;;;2.57;;
3343;SDS011;1685;53.104;8.228;2022-11-23T13:52:24;14.70;;;2.47;;
3343;SDS011;1685;53.104;8.228;2022-11-23T13:54:53;1.90;;;1.50;;
3343;SDS011;1685;53.104;8.228;2022-11-23T13:57:22;5.17;;;1.80;;
3343;SDS011;1685;53.104;8.228;2022-11-23T13:59:49;5.20;;;2.20;;
3343;SDS011;1685;53.104;8.228;2022-11-23T14:07:54;7.80;;;2.10;;
3343;SDS011;1685;53.104;8.228;2022-11-23T14:10:22;6.70;;;2.73;;
3343;SDS011;1685;53.104;8.228;2022-11-23T14:12:51;4.83;;;1.83;;
3343;SDS011;1685;53.104;8.228;2022-11-23T14:15:22;3.93;;;2.53;;
3343;SDS011;1685;53.104;8.228;2022-11-23T14:18:02;3.03;;;1.97;;
3343;SDS011;1685;53.104;8.228;2022-11-23T14:20:54;6.93;;;2.13;;
3343;SDS011;1685;53.104;8.228;2022-11-23T14:23:35;4.60;;;2.13;;
3343;SDS011;1685;53.104;8.228;2022-11-23T14:26:26;4.20;;;2.00;;
3343;SDS011;1685;53.104;8.228;2022-11-23T14:29:07;4.20;;;2.33;;
3343;SDS011;1685;53.104;8.228;2022-11-23T14:31:59;6.17;;;2.20;;
3343;SDS011;1685;53.104;8.228;2022-11-23T14:34:53;5.10;;;1.73;;
3343;SDS011;1685;53.104;8.228;2022-11-23T14:37:39;2.97;;;1.93;;
3343;SDS011;1685;53.104;8.228;2022-11-23T14:40:18;4.40;;;2.00;;
3343;SDS011;1685;53.104;8.228;2022-11-23T14:42:51;2.20;;;1.93;;
3343;SDS011;1685;53.104;8.228;2022-11-23T14:45:20;5.97;;;2.47;;
3343;SDS011;1685;53.104;8.228;2022-11-23T14:47:48;5.37;;;2.50;;
3343;SDS011;1685;53.104;8.228;2022-11-23T14:50:19;6.60;;;2.37;;
3343;SDS011;1685;53.104;8.228;2022-11-23T14:52:47;5.10;;;2.70;;
3343;SDS011;1685;53.104;8.228;2022-11-23T14:55:17;10.43;;;2.77;;
3343;SDS011;1685;53.104;8.228;2022-11-23T14:57:47;3.00;;;1.90;;
3343;SDS011;1685;53.104;8.228;2022-11-23T15:00:22;4.60;;;3.00;;
3343;SDS011;1685;53.104;8.228;2022-11-23T15:02:52;9.87;;;2.77;;
3343;SDS011;1685;53.104;8.228;2022-11-23T15:05:22;7.17;;;3.07;;
3343;SDS011;1685;53.104;8.228;2022-11-23T15:07:54;10.70;;;3.00;;
3343;SDS011;1685;53.104;8.228;2022-11-23T15:10:29;5.67;;;2.50;;
3343;SDS011;1685;53.104;8.228;2022-11-23T15:13:14;9.80;;;3.40;;
3343;SDS011;1685;53.104;8.228;2022-11-23T15:15:43;6.00;;;3.00;;
3343;SDS011;1685;53.104;8.228;2022-11-23T15:18:11;5.30;;;4.07;;
3343;SDS011;1685;53.104;8.228;2022-11-23T15:20:40;10.10;;;3.50;;
3343;SDS011;1685;53.104;8.228;2022-11-23T15:23:10;7.13;;;3.20;;
3343;SDS011;1685;53.104;8.228;2022-11-23T15:25:50;8.83;;;2.90;;
3343;SDS011;1685;53.104;8.228;2022-11-23T15:28:17;5.57;;;3.30;;
3343;SDS011;1685;53.104;8.228;2022-11-23T15:30:48;8.50;;;3.00;;
3343;SDS011;1685;53.104;8.228;2022-11-23T15:33:17;5.90;;;2.70;;
3343;SDS011;1685;53.104;8.228;2022-11-23T15:35:45;7.30;;;3.00;;
3343;SDS011;1685;53.104;8.228;2022-11-23T15:38:13;7.33;;;3.20;;
3343;SDS011;1685;53.104;8.228;2022-11-23T15:40:41;7.10;;;3.37;;
3343;SDS011;1685;53.104;8.228;2022-11-23T15:43:12;8.70;;;4.10;;